createdAt,value
2023-01-13T00:05:23.111Z,8.10
2023-01-13T00:15:25.350Z,8.20
2023-01-13T00:25:28.885Z,8.20
2023-01-13T00:35:30.854Z,8.20
2023-01-13T00:45:34.194Z,8.20
2023-01-13T00:55:36.192Z,8.20
2023-01-13T01:05:40.706Z,8.20
2023-01-13T01:15:42.741Z,8.10
2023-01-13T01:25:46.303Z,8.00
2023-01-13T01:35:48.371Z,7.90
2023-01-13T01:45:51.704Z,7.90
2023-01-13T01:55:54.501Z,7.90
2023-01-13T02:05:57.932Z,7.80
2023-01-13T02:16:13.569Z,7.80
2023-01-13T02:26:56.311Z,7.80
2023-01-13T02:37:04.460Z,7.80
2023-01-13T02:47:13.816Z,7.80
2023-01-13T02:57:18.711Z,7.70
2023-01-13T03:07:43.846Z,7.70
2023-01-13T03:17:54.947Z,7.70
2023-01-13T03:27:59.306Z,7.70
2023-01-13T03:38:07.288Z,7.70
2023-01-13T03:48:12.529Z,7.60
2023-01-13T03:58:19.389Z,7.60
2023-01-13T04:08:24.860Z,7.60
2023-01-13T04:18:30.535Z,7.60
2023-01-13T04:28:32.505Z,7.60
2023-01-13T04:38:35.872Z,7.80
2023-01-13T04:48:37.819Z,7.80
2023-01-13T04:58:41.131Z,7.70
2023-01-13T05:08:43.115Z,7.60
2023-01-13T05:18:46.423Z,7.60
2023-01-13T05:28:48.350Z,7.50
2023-01-13T05:38:53.133Z,7.60
2023-01-13T05:48:55.066Z,7.60
2023-01-13T05:58:58.389Z,7.60
2023-01-13T06:09:00.340Z,7.60
2023-01-13T06:19:03.739Z,7.60
2023-01-13T06:29:06.305Z,7.60
2023-01-13T06:39:13.922Z,7.60
2023-01-13T06:49:16.009Z,7.60
2023-01-13T06:59:19.344Z,7.70
2023-01-13T07:09:21.316Z,7.70
2023-01-13T07:19:24.752Z,7.80
2023-01-13T07:29:26.675Z,7.90
2023-01-13T07:39:30.003Z,8.00
2023-01-13T07:49:31.977Z,7.90
2023-01-13T07:59:35.314Z,7.80
2023-01-13T08:09:37.290Z,7.70
2023-01-13T08:19:40.743Z,7.60
2023-01-13T08:29:42.992Z,7.70
2023-01-13T08:39:46.377Z,7.80
2023-01-13T08:49:48.354Z,7.90
2023-01-13T08:59:51.776Z,8.00
2023-01-13T09:09:53.721Z,8.60
2023-01-13T09:19:57.084Z,9.70
2023-01-13T09:29:59.045Z,10.20
2023-01-13T09:40:04.133Z,10.80
2023-01-13T09:50:20.242Z,10.80
2023-01-13T10:00:26.769Z,11.70
2023-01-13T10:10:34.350Z,11.80
2023-01-13T10:20:55.956Z,11.50
2023-01-13T10:30:57.961Z,10.60
2023-01-13T10:41:02.961Z,10.40
2023-01-13T10:51:18.081Z,11.50
2023-01-13T11:01:26.556Z,11.60
2023-01-13T11:11:38.702Z,11.80
2023-01-13T11:21:52.786Z,12.00
2023-01-13T11:32:03.624Z,11.60
2023-01-13T11:42:15.941Z,11.20
2023-01-13T11:52:23.397Z,10.70
2023-01-13T12:02:41.600Z,10.70
2023-01-13T12:12:53.392Z,10.50
2023-01-13T12:23:01.037Z,10.40
2023-01-13T12:33:17.348Z,10.50
2023-01-13T12:43:23.665Z,10.60
2023-01-13T12:53:34.765Z,10.80
2023-01-13T13:03:38.185Z,10.80
2023-01-13T13:13:46.696Z,10.70
2023-01-13T13:35:18.434Z,10.60
2023-01-13T13:45:36.335Z,10.70
2023-01-13T13:55:53.008Z,10.60
2023-01-13T14:05:57.522Z,10.60
2023-01-13T14:16:02.982Z,10.60
2023-01-13T14:26:08.837Z,10.60
2023-01-13T14:36:19.207Z,10.50
2023-01-13T14:46:21.636Z,10.60
2023-01-13T14:56:49.628Z,10.60
2023-01-13T15:06:54.866Z,10.50
2023-01-13T15:16:58.246Z,10.50
2023-01-13T15:27:00.515Z,10.30
2023-01-13T15:37:03.857Z,10.30
2023-01-13T15:47:08.198Z,10.00
2023-01-13T15:57:21.002Z,9.80
2023-01-13T16:07:24.808Z,9.60
2023-01-13T16:17:28.283Z,9.40
2023-01-13T16:27:30.438Z,9.20
2023-01-13T16:37:33.828Z,9.00
2023-01-13T16:47:35.761Z,8.90
2023-01-13T16:57:39.157Z,8.90
2023-01-13T17:07:42.583Z,9.00
2023-01-13T17:17:46.872Z,9.00
2023-01-13T17:27:48.861Z,8.90
2023-01-13T17:37:52.712Z,8.60
2023-01-13T17:47:55.898Z,8.50
2023-01-13T17:57:59.256Z,8.30
2023-01-13T18:08:01.256Z,8.30
2023-01-13T18:18:04.772Z,8.20
2023-01-13T18:28:06.795Z,8.00
2023-01-13T18:38:10.096Z,7.90
2023-01-13T18:48:14.047Z,7.80
2023-01-13T18:58:17.327Z,7.70
2023-01-13T19:08:19.422Z,7.70
2023-01-13T19:18:22.851Z,7.60
2023-01-13T19:28:24.810Z,7.50
2023-01-13T19:38:28.415Z,7.40
2023-01-13T19:48:30.401Z,7.40
2023-01-13T19:58:34.059Z,7.40
2023-01-13T20:08:44.808Z,7.40
2023-01-13T20:18:50.873Z,7.30
2023-01-13T20:28:52.800Z,7.10
2023-01-13T20:38:58.614Z,7.00
2023-01-13T20:49:00.639Z,6.80
2023-01-13T20:59:04.115Z,6.90
2023-01-13T21:09:06.058Z,6.80
2023-01-13T21:19:09.421Z,6.80
2023-01-13T21:29:12.610Z,6.70
2023-01-13T21:39:16.112Z,6.70
2023-01-13T21:49:18.103Z,6.60
2023-01-13T21:59:21.682Z,6.40
2023-01-13T22:09:23.717Z,6.40
2023-01-13T22:19:27.136Z,6.30
2023-01-13T22:29:29.139Z,6.30
2023-01-13T22:39:32.803Z,6.50
2023-01-13T22:49:34.976Z,6.50
2023-01-13T22:59:38.335Z,6.60
2023-01-13T23:09:40.297Z,6.70
2023-01-13T23:19:43.612Z,6.80
2023-01-13T23:29:45.538Z,6.90
2023-01-13T23:39:49.058Z,7.00
2023-01-13T23:49:50.997Z,7.20
2023-01-13T23:59:54.327Z,7.20
